createdAt,value
2017-10-19T00:01:31.312Z,10.90
2017-10-19T00:03:58.811Z,10.80
2017-10-19T00:06:26.320Z,10.80
2017-10-19T00:08:53.824Z,10.80
2017-10-19T00:11:22.100Z,10.80
2017-10-19T00:13:50.363Z,10.70
2017-10-19T00:16:18.636Z,10.70
2017-10-19T00:18:46.131Z,10.60
2017-10-19T00:21:14.387Z,10.60
2017-10-19T00:23:42.642Z,10.70
2017-10-19T00:26:10.899Z,10.60
2017-10-19T00:28:39.162Z,10.60
2017-10-19T00:31:06.664Z,10.50
2017-10-19T00:33:34.163Z,10.50
2017-10-19T00:36:02.058Z,10.50
2017-10-19T00:38:30.328Z,10.50
2017-10-19T00:40:58.228Z,10.40
2017-10-19T00:43:25.732Z,10.40
2017-10-19T00:45:53.231Z,10.40
2017-10-19T00:48:20.740Z,10.30
2017-10-19T00:50:48.649Z,10.30
2017-10-19T00:53:16.543Z,10.30
2017-10-19T00:55:44.047Z,10.30
2017-10-19T00:58:11.543Z,10.20
2017-10-19T01:00:39.062Z,10.20
2017-10-19T01:03:07.703Z,10.30
2017-10-19T01:05:35.224Z,10.20
2017-10-19T01:08:02.726Z,10.10
2017-10-19T01:10:30.247Z,10.10
2017-10-19T01:12:57.739Z,10.10
2017-10-19T01:15:25.235Z,10.10
2017-10-19T01:17:52.736Z,10.10
2017-10-19T01:20:20.635Z,10.00
2017-10-19T01:22:48.521Z,10.00
2017-10-19T01:25:17.155Z,10.00
2017-10-19T01:27:44.648Z,9.90
2017-10-19T01:30:12.140Z,9.90
2017-10-19T01:32:40.400Z,10.00
2017-10-19T01:35:07.904Z,9.90
2017-10-19T01:37:35.406Z,9.90
2017-10-19T01:40:02.907Z,9.80
2017-10-19T01:42:30.404Z,9.80
2017-10-19T01:44:57.901Z,9.80
2017-10-19T01:47:26.169Z,9.70
2017-10-19T01:49:59.675Z,9.70
2017-10-19T01:52:27.175Z,9.60
2017-10-19T01:54:54.688Z,9.70
2017-10-19T01:57:22.186Z,9.60
2017-10-19T01:59:50.075Z,9.50
2017-10-19T02:02:17.573Z,9.50
2017-10-19T02:04:46.220Z,9.50
2017-10-19T02:07:13.713Z,9.50
2017-10-19T02:09:41.590Z,9.50
2017-10-19T02:12:09.861Z,9.50
2017-10-19T02:14:38.135Z,9.50
2017-10-19T02:17:06.015Z,9.40
2017-10-19T02:19:33.503Z,9.40
2017-10-19T02:22:01.009Z,9.30
2017-10-19T02:24:28.510Z,9.30
2017-10-19T02:26:56.771Z,9.30
2017-10-19T02:29:24.279Z,9.30
2017-10-19T02:31:52.079Z,9.20
2017-10-19T02:34:19.580Z,9.20
2017-10-19T02:36:47.842Z,9.20
2017-10-19T02:39:15.340Z,9.20
2017-10-19T02:41:43.236Z,9.20
2017-10-19T02:44:10.743Z,9.30
2017-10-19T02:46:38.254Z,9.20
2017-10-19T02:49:06.159Z,9.10
2017-10-19T02:51:33.661Z,9.10
2017-10-19T02:54:01.155Z,9.10
2017-10-19T02:58:57.531Z,9.00
2017-10-19T03:01:25.028Z,9.00
2017-10-19T03:03:52.514Z,9.00
2017-10-19T03:06:19.996Z,9.00
2017-10-19T03:08:48.247Z,9.00
2017-10-19T03:11:15.736Z,8.90
2017-10-19T03:13:43.231Z,8.90
2017-10-19T03:16:10.735Z,8.90
2017-10-19T03:18:39.727Z,8.90
2017-10-19T03:21:08.719Z,8.90
2017-10-19T03:26:05.095Z,8.90
2017-10-19T03:28:33.367Z,8.80
2017-10-19T03:31:00.891Z,8.80
2017-10-19T03:33:28.392Z,8.80
2017-10-19T03:35:55.894Z,8.80
2017-10-19T03:38:23.380Z,8.80
2017-10-19T03:40:50.867Z,8.80
2017-10-19T03:43:18.354Z,8.80
2017-10-19T03:45:46.986Z,8.80
2017-10-19T03:48:14.875Z,8.80
2017-10-19T03:50:42.397Z,8.90
2017-10-19T03:53:09.891Z,8.90
2017-10-19T03:55:37.794Z,8.80
2017-10-19T03:58:05.291Z,8.80
2017-10-19T04:00:32.790Z,8.80
2017-10-19T04:03:01.059Z,8.80
2017-10-19T04:05:29.327Z,8.80
2017-10-19T04:07:57.228Z,8.80
2017-10-19T04:10:25.860Z,8.70
2017-10-19T04:12:53.367Z,8.70
2017-10-19T04:17:50.481Z,8.60
2017-10-19T04:20:19.503Z,8.60
2017-10-19T04:22:47.764Z,8.60
2017-10-19T04:25:15.254Z,8.70
2017-10-19T04:27:43.151Z,8.60
2017-10-19T04:30:12.143Z,8.70
2017-10-19T04:32:40.407Z,8.60
2017-10-19T04:35:07.904Z,8.50
2017-10-19T04:37:35.400Z,8.50
2017-10-19T04:40:02.899Z,8.50
2017-10-19T04:42:30.402Z,8.50
2017-10-19T04:44:59.999Z,8.60
2017-10-19T04:49:57.340Z,8.60
2017-10-19T04:52:26.402Z,8.70
2017-10-19T04:59:52.576Z,8.60
2017-10-19T05:02:20.076Z,8.60
2017-10-19T05:04:47.578Z,8.50
2017-10-19T05:07:15.082Z,8.50
2017-10-19T05:09:42.579Z,8.40
2017-10-19T05:12:10.847Z,8.40
2017-10-19T05:14:38.345Z,8.40
2017-10-19T05:17:05.845Z,8.40
2017-10-19T05:19:33.339Z,8.40
2017-10-19T05:22:00.849Z,8.40
2017-10-19T05:24:28.346Z,8.40
2017-10-19T05:26:56.240Z,8.30
2017-10-19T05:29:24.576Z,8.40
2017-10-19T05:31:52.088Z,8.30
2017-10-19T05:36:48.438Z,8.30
2017-10-19T05:39:16.711Z,8.40
2017-10-19T05:41:44.232Z,8.50
2017-10-19T05:44:11.730Z,8.40
2017-10-19T05:46:39.259Z,8.40
2017-10-19T05:49:06.758Z,8.30
2017-10-19T05:51:35.054Z,8.40
2017-10-19T05:54:02.549Z,8.40
2017-10-19T05:56:30.043Z,8.40
2017-10-19T05:58:57.535Z,8.40
2017-10-19T06:01:25.435Z,8.40
2017-10-19T06:03:52.935Z,8.40
2017-10-19T06:06:20.424Z,8.40
2017-10-19T06:08:47.910Z,8.50
2017-10-19T06:11:15.399Z,8.60
2017-10-19T06:13:43.667Z,8.60
2017-10-19T06:16:11.163Z,8.60
2017-10-19T06:18:40.248Z,8.70
2017-10-19T06:21:07.747Z,8.80
2017-10-19T06:23:35.239Z,8.80
2017-10-19T06:26:02.741Z,8.90
2017-10-19T06:30:59.091Z,9.00
2017-10-19T06:33:26.582Z,9.00
2017-10-19T06:35:54.884Z,9.00
2017-10-19T06:38:22.787Z,9.10
2017-10-19T06:40:51.064Z,9.20
2017-10-19T06:43:19.347Z,9.30
2017-10-19T06:45:47.617Z,9.40
2017-10-19T06:48:16.620Z,9.60
2017-10-19T06:50:44.119Z,9.70
2017-10-19T06:53:11.628Z,9.80
2017-10-19T06:55:39.918Z,9.90
2017-10-19T06:58:07.410Z,10.00
2017-10-19T07:00:35.682Z,10.00
2017-10-19T07:03:03.194Z,10.10
2017-10-19T07:05:30.703Z,10.20
2017-10-19T07:07:58.217Z,10.40
2017-10-19T07:10:26.115Z,10.50
2017-10-19T07:12:53.614Z,10.50
2017-10-19T07:15:21.111Z,10.60
2017-10-19T07:17:48.599Z,10.70
2017-10-19T07:20:16.107Z,10.90
2017-10-19T07:22:43.618Z,10.90
2017-10-19T07:25:11.116Z,11.00
2017-10-19T07:27:39.381Z,11.10
2017-10-19T07:30:07.656Z,11.20
2017-10-19T07:32:36.307Z,11.40
2017-10-19T07:35:03.804Z,11.40
2017-10-19T07:37:32.071Z,11.50
2017-10-19T07:39:59.577Z,11.60
2017-10-19T07:42:27.125Z,11.70
2017-10-19T07:44:54.623Z,11.90
2017-10-19T07:47:22.161Z,12.00
2017-10-19T07:49:50.441Z,12.20
2017-10-19T07:52:18.733Z,12.30
2017-10-19T07:54:46.231Z,12.40
2017-10-19T07:57:13.743Z,12.60
2017-10-19T07:59:41.239Z,12.80
2017-10-19T08:02:08.769Z,13.00
2017-10-19T08:04:36.264Z,13.10
2017-10-19T08:07:03.764Z,13.20
2017-10-19T08:09:31.379Z,13.40
2017-10-19T08:11:58.888Z,13.60
2017-10-19T08:14:26.401Z,13.80
2017-10-19T08:16:54.307Z,14.00
2017-10-19T08:19:21.803Z,14.20
2017-10-19T08:21:49.325Z,14.30
2017-10-19T08:24:16.841Z,14.40
2017-10-19T08:26:45.477Z,14.50
2017-10-19T08:29:12.984Z,14.60
2017-10-19T08:31:41.260Z,14.60
2017-10-19T08:34:09.169Z,14.60
2017-10-19T08:36:36.668Z,14.60
2017-10-19T08:39:04.562Z,14.60
2017-10-19T08:41:32.160Z,14.60
2017-10-19T08:43:59.679Z,14.80
2017-10-19T08:46:27.176Z,14.80
2017-10-19T08:48:54.672Z,15.00
2017-10-19T08:51:22.185Z,15.00
2017-10-19T08:53:49.689Z,15.30
2017-10-19T08:56:17.195Z,15.40
2017-10-19T08:58:45.833Z,15.50
2017-10-19T09:01:13.739Z,15.80
2017-10-19T09:03:41.256Z,15.90
2017-10-19T09:06:09.896Z,16.10
2017-10-19T09:08:37.802Z,16.40
2017-10-19T09:11:06.453Z,16.50
2017-10-19T09:13:34.722Z,16.70
2017-10-19T09:16:03.005Z,16.80
2017-10-19T09:18:32.016Z,16.90
2017-10-19T09:20:59.524Z,17.00
2017-10-19T09:23:27.426Z,17.10
2017-10-19T09:25:54.927Z,17.30
2017-10-19T09:28:22.439Z,17.40
2017-10-19T09:30:50.708Z,17.60
2017-10-19T09:33:18.207Z,17.70
2017-10-19T09:35:46.844Z,17.70
2017-10-19T09:38:14.758Z,18.10
2017-10-19T09:40:42.268Z,18.10
2017-10-19T09:43:09.793Z,18.30
2017-10-19T09:45:37.304Z,18.40
2017-10-19T09:48:04.837Z,18.60
2017-10-19T09:50:33.116Z,18.70
2017-10-19T09:53:00.688Z,18.80
2017-10-19T09:55:28.195Z,18.90
2017-10-19T09:57:56.485Z,19.00
2017-10-19T10:00:24.132Z,19.10
2017-10-19T10:02:52.785Z,19.20
2017-10-19T10:05:21.431Z,19.30
2017-10-19T10:07:48.932Z,19.50
2017-10-19T10:10:16.433Z,19.60
2017-10-19T10:12:45.452Z,19.60
2017-10-19T10:15:12.947Z,19.80
2017-10-19T10:17:41.949Z,20.00
2017-10-19T10:20:09.466Z,20.10
2017-10-19T10:22:36.963Z,20.30
2017-10-19T10:25:04.482Z,20.20
2017-10-19T10:27:32.032Z,20.30
2017-10-19T10:30:00.299Z,20.40
2017-10-19T10:32:27.804Z,20.50
2017-10-19T10:34:55.311Z,20.60
2017-10-19T10:37:22.813Z,20.70
2017-10-19T10:39:51.072Z,20.80
2017-10-19T10:42:18.568Z,20.90
2017-10-19T10:44:46.069Z,21.00
2017-10-19T10:47:13.955Z,21.20
2017-10-19T10:49:42.232Z,21.20
2017-10-19T10:52:09.731Z,20.90
2017-10-19T10:54:37.237Z,20.70
2017-10-19T10:57:04.748Z,20.40
2017-10-19T10:59:32.244Z,20.20
2017-10-19T11:02:00.516Z,20.00
2017-10-19T11:04:28.796Z,19.90
2017-10-19T11:06:57.067Z,19.80
2017-10-19T11:09:25.331Z,19.80
2017-10-19T11:11:53.603Z,19.60
2017-10-19T11:14:21.872Z,19.60
2017-10-19T11:16:50.143Z,19.60
2017-10-19T11:19:18.421Z,19.60
2017-10-19T11:21:46.686Z,19.50
2017-10-19T11:24:14.949Z,19.40
2017-10-19T11:29:11.295Z,19.50
2017-10-19T11:31:38.803Z,19.40
2017-10-19T11:34:06.299Z,19.40
2017-10-19T11:36:35.319Z,19.40
2017-10-19T11:39:03.595Z,19.50
2017-10-19T11:41:31.876Z,19.50
2017-10-19T11:43:59.380Z,19.50
2017-10-19T11:46:27.275Z,19.50
2017-10-19T11:48:55.547Z,19.60
2017-10-19T11:51:23.824Z,19.60
2017-10-19T11:53:51.344Z,19.50
2017-10-19T11:56:18.848Z,19.70
2017-10-19T11:58:46.371Z,19.70
2017-10-19T12:01:13.875Z,19.70
2017-10-19T12:03:42.168Z,19.70
2017-10-19T12:06:10.054Z,19.70
2017-10-19T12:08:38.355Z,19.90
2017-10-19T12:11:06.631Z,19.90
2017-10-19T12:13:34.933Z,19.80
2017-10-19T12:16:02.444Z,19.70
2017-10-19T12:18:29.967Z,19.80
2017-10-19T12:20:57.475Z,19.80
2017-10-19T12:25:53.907Z,19.80
2017-10-19T12:28:21.420Z,19.80
2017-10-19T12:30:49.471Z,19.90
2017-10-19T12:33:16.980Z,19.90
2017-10-19T12:35:45.257Z,19.90
2017-10-19T12:40:41.620Z,19.90
2017-10-19T12:43:09.520Z,19.80
2017-10-19T12:45:37.036Z,19.90
2017-10-19T12:48:04.534Z,19.90
2017-10-19T12:50:32.804Z,19.90
2017-10-19T12:53:00.299Z,20.00
2017-10-19T12:55:27.796Z,20.00
2017-10-19T12:57:55.295Z,20.10
2017-10-19T13:00:22.799Z,20.00
2017-10-19T13:02:50.307Z,20.00
2017-10-19T13:05:18.580Z,20.00
2017-10-19T13:07:46.096Z,20.10
2017-10-19T13:10:14.723Z,20.00
2017-10-19T13:12:42.226Z,20.00
2017-10-19T13:15:09.731Z,19.90
2017-10-19T13:17:37.238Z,19.90
2017-10-19T13:20:04.733Z,20.00
2017-10-19T13:22:32.992Z,19.90
2017-10-19T13:25:00.495Z,20.00
2017-10-19T13:27:28.009Z,19.90
2017-10-19T13:29:55.528Z,20.00
2017-10-19T13:32:23.023Z,20.00
2017-10-19T13:34:50.536Z,20.00
2017-10-19T13:37:18.030Z,20.00
2017-10-19T13:39:45.923Z,19.90
2017-10-19T13:42:13.416Z,19.90
2017-10-19T13:44:42.055Z,20.10
2017-10-19T13:47:10.342Z,20.10
2017-10-19T13:49:38.613Z,20.10
2017-10-19T13:52:06.886Z,20.00
2017-10-19T13:54:34.799Z,19.90
2017-10-19T13:57:02.304Z,20.00
2017-10-19T14:01:59.446Z,19.90
2017-10-19T14:04:27.771Z,19.90
2017-10-19T14:06:55.258Z,19.90
2017-10-19T14:11:51.635Z,20.00
2017-10-19T14:14:20.268Z,20.00
2017-10-19T14:19:16.632Z,20.10
2017-10-19T14:21:44.138Z,20.10
2017-10-19T14:24:11.631Z,20.20
2017-10-19T14:26:39.520Z,20.20
2017-10-19T14:29:07.019Z,20.10
2017-10-19T14:31:34.520Z,19.90
2017-10-19T14:34:02.018Z,19.80
2017-10-19T14:36:29.695Z,19.70
2017-10-19T14:38:57.191Z,19.60
2017-10-19T14:41:24.682Z,19.60
2017-10-19T14:43:52.187Z,19.50
2017-10-19T14:48:48.557Z,19.50
2017-10-19T14:51:16.052Z,19.50
2017-10-19T14:53:43.644Z,19.50
2017-10-19T14:56:12.648Z,19.50
2017-10-19T14:58:40.148Z,19.40
2017-10-19T15:01:08.775Z,19.40
2017-10-19T15:03:37.080Z,19.30
2017-10-19T15:06:04.586Z,19.20
2017-10-19T15:08:33.600Z,19.20
2017-10-19T15:11:01.108Z,19.10
2017-10-19T15:13:28.637Z,19.00
2017-10-19T15:15:56.916Z,18.90
2017-10-19T15:18:24.448Z,18.80
2017-10-19T15:20:52.732Z,18.70
2017-10-19T15:23:20.651Z,18.60
2017-10-19T15:25:48.918Z,18.70
2017-10-19T15:28:17.575Z,18.60
2017-10-19T15:30:45.095Z,18.50
2017-10-19T15:33:13.014Z,18.50
2017-10-19T15:35:40.511Z,18.40
2017-10-19T15:38:08.007Z,18.40
2017-10-19T15:40:35.508Z,18.30
2017-10-19T15:43:03.092Z,18.30
2017-10-19T15:45:31.352Z,18.20
2017-10-19T15:47:59.244Z,18.20
2017-10-19T15:50:28.263Z,18.20
2017-10-19T15:52:55.844Z,18.20
2017-10-19T15:55:23.768Z,18.30
2017-10-19T15:57:51.283Z,18.30
2017-10-19T16:00:19.091Z,16.60
2017-10-19T16:02:46.992Z,18.40
2017-10-19T16:05:15.642Z,18.50
2017-10-19T16:07:43.141Z,18.50
2017-10-19T16:10:11.411Z,18.50
2017-10-19T16:12:38.923Z,18.40
2017-10-19T16:15:07.578Z,18.40
2017-10-19T16:17:35.862Z,18.30
2017-10-19T16:20:03.772Z,18.20
2017-10-19T16:22:31.300Z,18.10
2017-10-19T16:24:58.796Z,18.10
2017-10-19T16:27:26.702Z,18.00
2017-10-19T16:29:54.196Z,18.00
2017-10-19T16:32:22.456Z,17.90
2017-10-19T16:34:50.367Z,17.90
2017-10-19T16:37:17.874Z,17.90
2017-10-19T16:39:45.381Z,17.80
2017-10-19T16:44:41.748Z,17.70
2017-10-19T16:47:09.255Z,17.60
2017-10-19T16:49:37.184Z,17.60
2017-10-19T16:52:04.784Z,17.60
2017-10-19T16:54:32.308Z,17.50
2017-10-19T16:56:59.808Z,17.40
2017-10-19T16:59:27.324Z,17.40
2017-10-19T17:01:54.827Z,17.30
2017-10-19T17:04:22.747Z,17.40
2017-10-19T17:06:51.019Z,17.30
2017-10-19T17:09:18.921Z,17.20
2017-10-19T17:11:47.935Z,17.00
2017-10-19T17:14:16.948Z,17.00
2017-10-19T17:19:13.327Z,16.80
2017-10-19T17:21:41.254Z,16.70
2017-10-19T17:24:08.756Z,16.50
2017-10-19T17:26:36.368Z,16.30
2017-10-19T17:29:04.279Z,16.20
2017-10-19T17:31:31.774Z,16.10
2017-10-19T17:33:59.276Z,16.10
2017-10-19T17:36:26.800Z,16.10
2017-10-19T17:38:54.295Z,15.90
2017-10-19T17:41:22.976Z,15.90
2017-10-19T17:43:50.871Z,15.80
2017-10-19T17:46:19.198Z,15.70
2017-10-19T17:48:46.703Z,15.70
2017-10-19T17:51:14.783Z,15.70
2017-10-19T17:53:42.288Z,15.70
2017-10-19T17:56:09.808Z,15.80
2017-10-19T17:58:38.075Z,15.80
2017-10-19T18:01:05.975Z,15.90
2017-10-19T18:03:34.628Z,15.90
2017-10-19T18:06:03.289Z,15.90
2017-10-19T18:08:30.799Z,16.00
2017-10-19T18:10:58.692Z,16.00
2017-10-19T18:15:55.049Z,16.00
2017-10-19T18:20:52.567Z,16.00
2017-10-19T18:23:20.483Z,16.00
2017-10-19T18:25:47.991Z,15.90
2017-10-19T18:28:15.512Z,15.90
2017-10-19T18:30:44.148Z,15.80
2017-10-19T18:33:12.443Z,15.80
2017-10-19T18:35:41.076Z,15.70
2017-10-19T18:38:09.732Z,15.70
2017-10-19T18:40:37.238Z,15.70
2017-10-19T18:43:04.747Z,15.60
2017-10-19T18:45:33.379Z,15.70
2017-10-19T18:48:01.671Z,15.60
2017-10-19T18:50:30.311Z,15.50
2017-10-19T18:52:58.215Z,15.60
2017-10-19T18:55:26.491Z,15.50
2017-10-19T18:57:55.707Z,15.50
2017-10-19T19:00:23.227Z,15.50
2017-10-19T19:02:51.491Z,15.40
2017-10-19T19:05:19.775Z,15.30
2017-10-19T19:07:48.156Z,15.30
2017-10-19T19:10:16.496Z,15.20
2017-10-19T19:12:44.121Z,15.10
2017-10-19T19:15:11.648Z,15.10
2017-10-19T19:17:39.915Z,15.00
2017-10-19T19:20:07.929Z,15.00
2017-10-19T19:22:35.425Z,14.90
2017-10-19T19:25:03.340Z,14.90
2017-10-19T19:27:31.984Z,14.80
2017-10-19T19:30:00.292Z,14.80
2017-10-19T19:32:27.888Z,14.70
2017-10-19T19:34:55.781Z,14.70
2017-10-19T19:37:23.375Z,14.60
2017-10-19T19:39:50.871Z,14.50
2017-10-19T19:42:18.367Z,14.50
2017-10-19T19:44:45.882Z,14.50
2017-10-19T19:47:14.910Z,14.50
2017-10-19T19:49:42.411Z,14.50
2017-10-19T19:52:09.947Z,14.40
2017-10-19T19:54:37.456Z,14.40
2017-10-19T19:57:05.724Z,14.30
2017-10-19T20:04:32.300Z,14.30
2017-10-19T20:06:59.828Z,14.30
2017-10-19T20:09:27.737Z,14.30
2017-10-19T20:11:55.263Z,14.30
2017-10-19T20:14:22.776Z,14.20
2017-10-19T20:16:51.070Z,14.10
2017-10-19T20:19:18.588Z,14.00
2017-10-19T20:21:46.916Z,14.10
2017-10-19T20:24:14.831Z,14.00
2017-10-19T20:26:42.381Z,13.90
2017-10-19T20:29:11.243Z,13.90
2017-10-19T20:34:08.351Z,13.90
2017-10-19T20:36:35.851Z,13.90
2017-10-19T20:39:04.158Z,13.80
2017-10-19T20:44:00.533Z,13.80
2017-10-19T20:46:28.433Z,13.70
2017-10-19T20:48:55.927Z,13.70
2017-10-19T20:51:23.425Z,13.60
2017-10-19T20:53:50.919Z,13.60
2017-10-19T20:56:18.821Z,13.50
2017-10-19T20:58:46.349Z,13.50
2017-10-19T21:01:14.242Z,13.50
2017-10-19T21:03:41.763Z,13.40
2017-10-19T21:06:09.265Z,13.40
2017-10-19T21:08:36.787Z,13.40
2017-10-19T21:11:04.289Z,13.40
2017-10-19T21:13:32.568Z,13.40
2017-10-19T21:16:00.840Z,13.30
2017-10-19T21:18:29.108Z,13.30
2017-10-19T21:20:57.380Z,13.20
2017-10-19T21:23:25.643Z,13.20
2017-10-19T21:25:53.149Z,13.20
2017-10-19T21:28:20.653Z,13.10
2017-10-19T21:30:48.164Z,13.10
2017-10-19T21:33:15.667Z,13.00
2017-10-19T21:35:43.183Z,13.00
2017-10-19T21:38:10.683Z,13.00
2017-10-19T21:40:38.199Z,12.90
2017-10-19T21:43:06.096Z,12.90
2017-10-19T21:45:33.637Z,12.90
2017-10-19T21:50:30.862Z,12.90
2017-10-19T21:52:58.355Z,12.80
2017-10-19T21:55:25.892Z,12.70
2017-10-19T21:57:53.403Z,12.70
2017-10-19T22:00:21.680Z,12.70
2017-10-19T22:02:49.190Z,12.60
2017-10-19T22:05:17.484Z,12.50
2017-10-19T22:07:44.985Z,12.50
2017-10-19T22:10:12.487Z,12.50
2017-10-19T22:12:39.995Z,12.40
2017-10-19T22:15:07.495Z,12.40
2017-10-19T22:17:35.005Z,12.40
2017-10-19T22:20:04.016Z,12.40
2017-10-19T22:22:32.324Z,12.40
2017-10-19T22:24:59.838Z,12.40
2017-10-19T22:27:27.364Z,12.30
2017-10-19T22:29:54.867Z,12.20
2017-10-19T22:32:22.396Z,12.20
2017-10-19T22:34:50.659Z,12.20
2017-10-19T22:37:18.212Z,12.10
2017-10-19T22:39:45.723Z,12.10
2017-10-19T22:42:13.235Z,12.10
2017-10-19T22:44:41.871Z,12.00
2017-10-19T22:47:09.380Z,12.00
2017-10-19T22:49:36.883Z,11.90
2017-10-19T22:52:04.392Z,11.90
2017-10-19T22:54:31.905Z,11.90
2017-10-19T22:57:00.181Z,11.80
2017-10-19T22:59:28.818Z,11.90
2017-10-19T23:01:56.319Z,11.90
2017-10-19T23:04:24.603Z,11.80
2017-10-19T23:06:52.500Z,11.70
2017-10-19T23:09:20.027Z,11.70
2017-10-19T23:11:47.518Z,11.60
2017-10-19T23:14:15.051Z,11.60
2017-10-19T23:16:42.555Z,11.60
2017-10-19T23:19:10.085Z,11.50
2017-10-19T23:21:37.579Z,11.50
2017-10-19T23:24:05.488Z,11.50
2017-10-19T23:26:32.976Z,11.50
2017-10-19T23:29:00.490Z,11.50
2017-10-19T23:31:28.002Z,11.50
2017-10-19T23:33:55.501Z,11.40
2017-10-19T23:36:23.003Z,11.40
2017-10-19T23:38:50.904Z,11.30
2017-10-19T23:41:18.806Z,11.30
2017-10-19T23:43:46.706Z,11.30
2017-10-19T23:46:14.996Z,11.20
2017-10-19T23:48:43.268Z,11.20
2017-10-19T23:51:11.199Z,11.20
2017-10-19T23:53:39.114Z,11.10
2017-10-19T23:56:06.645Z,11.10
2017-10-19T23:58:34.912Z,11.10
